createdAt,value
2022-12-03T00:00:27.307Z,57.28
2022-12-03T00:02:55.153Z,57.34
2022-12-03T00:05:22.719Z,57.63
2022-12-03T00:07:50.171Z,58.28
2022-12-03T00:10:17.834Z,58.36
2022-12-03T00:12:45.541Z,57.50
2022-12-03T00:15:13.393Z,58.18
2022-12-03T00:17:43.653Z,58.48
2022-12-03T00:20:24.150Z,59.03
2022-12-03T00:22:52.622Z,60.97
2022-12-03T00:25:20.100Z,61.24
2022-12-03T00:27:47.668Z,61.08
2022-12-03T00:30:17.678Z,60.13
2022-12-03T00:32:45.160Z,59.46
2022-12-03T00:35:12.558Z,59.46
2022-12-03T00:37:39.847Z,59.43
2022-12-03T00:40:08.470Z,59.19
2022-12-03T00:42:35.735Z,58.16
2022-12-03T00:45:04.929Z,59.82
2022-12-03T00:47:32.205Z,59.23
2022-12-03T00:49:59.482Z,58.35
2022-12-03T00:52:26.905Z,57.81
2022-12-03T00:54:54.473Z,57.62
2022-12-03T00:57:23.654Z,57.47
2022-12-03T00:59:51.469Z,57.81
2022-12-03T01:02:19.335Z,57.87
2022-12-03T01:04:47.010Z,58.10
2022-12-03T01:07:14.502Z,58.50
2022-12-03T01:09:41.748Z,59.08
2022-12-03T01:12:09.058Z,58.66
2022-12-03T01:14:38.725Z,59.13
2022-12-03T01:17:06.847Z,59.93
2022-12-03T01:19:35.328Z,59.92
2022-12-03T01:22:02.640Z,59.96
2022-12-03T01:24:29.996Z,60.62
2022-12-03T01:26:57.667Z,60.79
2022-12-03T01:29:25.426Z,60.68
2022-12-03T01:32:12.283Z,60.71
2022-12-03T01:34:39.721Z,60.28
2022-12-03T01:37:07.087Z,60.45
2022-12-03T01:39:37.029Z,60.50
2022-12-03T01:42:08.914Z,60.32
2022-12-03T01:44:40.231Z,60.87
2022-12-03T01:47:16.739Z,60.68
2022-12-03T01:49:56.822Z,60.13
2022-12-03T01:52:33.051Z,59.92
2022-12-03T01:55:10.836Z,60.10
2022-12-03T01:57:48.598Z,59.91
2022-12-03T02:00:21.063Z,59.63
2022-12-03T02:02:57.575Z,59.31
2022-12-03T02:05:31.314Z,59.61
2022-12-03T02:08:00.059Z,59.46
2022-12-03T02:10:34.926Z,59.79
2022-12-03T02:13:09.313Z,59.10
2022-12-03T02:15:40.138Z,58.69
2022-12-03T02:18:10.112Z,59.12
2022-12-03T02:21:19.219Z,59.43
2022-12-03T02:24:11.533Z,59.06
2022-12-03T02:26:39.078Z,58.71
2022-12-03T02:29:06.757Z,58.72
2022-12-03T02:31:34.309Z,58.79
2022-12-03T02:34:07.194Z,60.04
2022-12-03T02:36:36.360Z,59.64
2022-12-03T02:39:05.594Z,59.43
2022-12-03T02:41:51.657Z,58.38
2022-12-03T02:44:19.276Z,57.20
2022-12-03T02:46:46.912Z,57.25
2022-12-03T02:49:14.636Z,57.11
2022-12-03T02:51:42.105Z,57.05
2022-12-03T02:54:09.541Z,58.42
2022-12-03T02:56:37.222Z,58.27
2022-12-03T02:59:06.133Z,59.66
2022-12-03T03:01:35.202Z,58.29
2022-12-03T03:04:04.975Z,58.22
2022-12-03T03:06:33.174Z,57.77
2022-12-03T03:09:02.624Z,57.71
2022-12-03T03:11:30.460Z,57.63
2022-12-03T03:14:00.418Z,58.18
2022-12-03T03:16:30.194Z,57.66
2022-12-03T03:18:57.581Z,58.23
2022-12-03T03:21:28.051Z,58.30
2022-12-03T03:23:55.239Z,58.83
2022-12-03T03:26:22.670Z,58.32
2022-12-03T03:28:52.460Z,57.72
2022-12-03T03:31:24.406Z,57.08
2022-12-03T03:33:54.273Z,57.66
2022-12-03T03:36:23.409Z,57.89
2022-12-03T03:38:50.878Z,57.51
2022-12-03T03:41:22.163Z,56.64
2022-12-03T03:43:51.599Z,57.08
2022-12-03T03:46:22.533Z,57.56
2022-12-03T03:48:52.956Z,57.25
2022-12-03T03:51:21.019Z,57.17
2022-12-03T03:53:50.990Z,57.50
2022-12-03T03:56:23.881Z,57.49
2022-12-03T03:58:51.256Z,56.45
2022-12-03T04:01:19.536Z,55.60
2022-12-03T04:03:47.477Z,55.19
2022-12-03T04:06:14.869Z,56.64
2022-12-03T04:08:42.524Z,57.01
2022-12-03T04:11:33.270Z,56.72
2022-12-03T04:14:01.198Z,57.70
2022-12-03T04:16:28.559Z,57.54
2022-12-03T04:18:56.050Z,57.78
2022-12-03T04:21:43.341Z,57.66
2022-12-03T04:24:11.744Z,57.84
2022-12-03T04:26:58.474Z,57.43
2022-12-03T04:29:25.916Z,58.37
2022-12-03T04:32:12.278Z,56.58
2022-12-03T04:34:58.251Z,56.02
2022-12-03T04:37:25.720Z,56.67
2022-12-03T04:39:53.085Z,57.86
2022-12-03T04:42:20.509Z,58.11
2022-12-03T04:44:47.913Z,58.31
2022-12-03T04:47:21.619Z,59.14
2022-12-03T04:49:51.794Z,58.76
2022-12-03T04:52:22.262Z,58.66
2022-12-03T04:54:49.721Z,58.17
2022-12-03T04:57:17.813Z,57.64
2022-12-03T05:00:37.639Z,58.19
2022-12-03T05:02:48.624Z,58.53
2022-12-03T05:05:16.657Z,58.70
2022-12-03T05:07:44.057Z,59.82
2022-12-03T05:10:12.698Z,59.79
2022-12-03T05:12:39.885Z,59.61
2022-12-03T05:15:08.065Z,58.37
2022-12-03T05:17:35.332Z,59.17
2022-12-03T05:20:21.557Z,60.23
2022-12-03T05:22:49.191Z,59.83
2022-12-03T05:25:19.728Z,58.88
2022-12-03T05:27:48.322Z,61.07
2022-12-03T05:30:16.046Z,59.99
2022-12-03T05:32:43.352Z,59.54
2022-12-03T05:35:11.316Z,59.28
2022-12-03T05:37:38.699Z,59.18
2022-12-03T05:40:07.410Z,58.84
2022-12-03T05:42:53.723Z,59.10
2022-12-03T05:45:25.801Z,56.97
2022-12-03T05:47:56.176Z,57.62
2022-12-03T05:50:28.127Z,59.23
2022-12-03T05:53:07.899Z,57.94
2022-12-03T05:56:09.149Z,56.69
2022-12-03T05:58:36.439Z,57.31
2022-12-03T06:01:04.074Z,57.75
2022-12-03T06:03:31.925Z,57.47
2022-12-03T06:05:59.967Z,56.89
2022-12-03T06:08:27.563Z,56.44
2022-12-03T06:11:01.421Z,57.13
2022-12-03T06:13:28.913Z,57.11
2022-12-03T06:15:56.523Z,57.64
2022-12-03T06:18:23.923Z,57.72
2022-12-03T06:20:51.267Z,57.02
2022-12-03T06:23:18.504Z,56.70
2022-12-03T06:25:45.830Z,56.78
2022-12-03T06:28:13.223Z,56.55
2022-12-03T06:30:40.751Z,55.72
2022-12-03T06:33:08.190Z,56.53
2022-12-03T06:35:37.825Z,56.71
2022-12-03T06:38:05.161Z,56.96
2022-12-03T06:40:32.577Z,57.29
2022-12-03T06:43:00.013Z,56.83
2022-12-03T06:45:27.398Z,55.16
2022-12-03T06:47:54.555Z,55.31
2022-12-03T06:50:21.794Z,56.31
2022-12-03T06:52:49.059Z,57.60
2022-12-03T06:55:17.531Z,57.75
2022-12-03T06:57:44.802Z,57.57
2022-12-03T07:00:13.452Z,58.42
2022-12-03T07:02:49.089Z,59.87
2022-12-03T07:05:17.042Z,60.10
2022-12-03T07:07:44.321Z,59.32
2022-12-03T07:10:12.457Z,56.57
2022-12-03T07:12:39.744Z,56.63
2022-12-03T07:15:08.056Z,56.82
2022-12-03T07:17:35.603Z,56.83
2022-12-03T07:20:04.949Z,58.40
2022-12-03T07:22:33.142Z,57.12
2022-12-03T07:25:00.451Z,58.31
2022-12-03T07:27:27.899Z,57.51
2022-12-03T07:29:57.495Z,57.14
2022-12-03T07:32:24.704Z,57.75
2022-12-03T07:34:52.572Z,58.46
2022-12-03T07:37:23.088Z,58.96
2022-12-03T07:39:52.543Z,58.61
2022-12-03T07:42:19.831Z,58.76
2022-12-03T07:44:47.256Z,57.95
2022-12-03T07:47:14.876Z,58.48
2022-12-03T07:49:42.343Z,57.27
2022-12-03T07:52:09.952Z,57.31
2022-12-03T07:54:37.464Z,57.11
2022-12-03T07:57:04.845Z,56.21
2022-12-03T07:59:32.463Z,56.23
2022-12-03T08:01:59.881Z,56.46
2022-12-03T08:04:28.065Z,55.72
2022-12-03T08:06:59.059Z,55.92
2022-12-03T08:09:28.750Z,55.65
2022-12-03T08:11:59.823Z,54.89
2022-12-03T08:14:28.375Z,55.74
2022-12-03T08:16:55.632Z,55.26
2022-12-03T08:19:23.010Z,55.72
2022-12-03T08:21:50.208Z,56.05
2022-12-03T08:24:21.728Z,57.16
2022-12-03T08:26:49.965Z,55.88
2022-12-03T08:29:20.199Z,55.94
2022-12-03T08:32:01.438Z,56.19
2022-12-03T08:34:43.798Z,57.13
2022-12-03T08:37:19.492Z,56.60
2022-12-03T08:39:54.896Z,57.17
2022-12-03T08:42:42.248Z,56.92
2022-12-03T08:45:29.123Z,58.29
2022-12-03T08:48:29.670Z,57.93
2022-12-03T08:51:15.461Z,57.90
2022-12-03T08:54:06.053Z,59.06
2022-12-03T08:56:37.306Z,59.71
2022-12-03T08:59:19.969Z,58.77
2022-12-03T09:01:49.141Z,58.90
2022-12-03T09:04:39.618Z,58.16
2022-12-03T09:07:10.007Z,57.56
2022-12-03T09:09:40.440Z,58.92
2022-12-03T09:12:08.416Z,59.02
2022-12-03T09:14:36.246Z,58.47
2022-12-03T09:17:04.140Z,58.39
2022-12-03T09:19:32.107Z,58.81
2022-12-03T09:21:59.939Z,57.26
2022-12-03T09:24:28.021Z,56.64
2022-12-03T09:26:56.359Z,56.92
2022-12-03T09:29:24.184Z,56.09
2022-12-03T09:31:54.279Z,55.58
2022-12-03T09:34:23.692Z,58.13
2022-12-03T09:36:51.381Z,57.88
2022-12-03T09:39:19.025Z,56.53
2022-12-03T09:41:47.207Z,55.77
2022-12-03T09:44:17.926Z,54.14
2022-12-03T09:46:48.631Z,53.03
2022-12-03T09:49:20.043Z,52.61
2022-12-03T09:51:47.899Z,53.73
2022-12-03T09:54:26.900Z,53.05
2022-12-03T09:56:57.345Z,53.38
2022-12-03T09:59:32.235Z,53.15
2022-12-03T10:02:01.810Z,54.98
2022-12-03T10:04:29.936Z,54.44
2022-12-03T10:06:59.283Z,52.47
2022-12-03T10:09:29.311Z,53.76
2022-12-03T10:11:59.808Z,54.00
2022-12-03T10:14:28.324Z,53.82
2022-12-03T10:16:56.632Z,53.82
2022-12-03T10:19:31.483Z,54.52
2022-12-03T10:21:59.203Z,55.60
2022-12-03T10:24:30.902Z,55.66
2022-12-03T10:27:22.674Z,53.43
2022-12-03T10:30:00.402Z,54.83
2022-12-03T10:32:47.953Z,54.74
2022-12-03T10:35:37.409Z,54.93
2022-12-03T10:38:19.439Z,54.17
2022-12-03T10:40:46.789Z,55.06
2022-12-03T10:43:18.657Z,55.97
2022-12-03T10:46:05.384Z,56.01
2022-12-03T10:48:32.921Z,55.12
2022-12-03T10:51:21.221Z,54.49
2022-12-03T10:53:50.835Z,54.94
2022-12-03T10:56:36.626Z,54.39
2022-12-03T10:59:06.202Z,54.97
2022-12-03T11:01:33.920Z,54.63
2022-12-03T11:04:05.183Z,55.66
2022-12-03T11:06:38.555Z,53.92
2022-12-03T11:09:35.332Z,54.07
2022-12-03T11:12:21.539Z,54.59
2022-12-03T11:15:05.120Z,54.70
2022-12-03T11:17:41.324Z,55.07
2022-12-03T11:20:22.854Z,55.22
2022-12-03T11:22:56.780Z,57.40
2022-12-03T11:25:28.517Z,55.18
2022-12-03T11:28:13.859Z,54.35
2022-12-03T11:30:53.581Z,54.29
2022-12-03T11:33:40.538Z,54.92
2022-12-03T11:36:12.856Z,55.67
2022-12-03T11:38:55.359Z,53.98
2022-12-03T11:41:30.310Z,53.31
2022-12-03T11:44:22.177Z,54.25
2022-12-03T11:46:50.088Z,55.13
2022-12-03T11:49:44.433Z,55.82
2022-12-03T11:52:33.493Z,56.13
2022-12-03T11:55:24.978Z,54.79
2022-12-03T11:58:04.617Z,54.97
2022-12-03T12:00:32.507Z,55.60
2022-12-03T12:03:00.290Z,56.14
2022-12-03T12:05:32.671Z,56.10
2022-12-03T12:08:02.746Z,55.37
2022-12-03T12:10:49.615Z,54.74
2022-12-03T12:13:36.629Z,55.13
2022-12-03T12:16:07.951Z,54.37
2022-12-03T12:18:52.427Z,54.73
2022-12-03T12:21:48.915Z,54.63
2022-12-03T12:24:54.486Z,54.52
2022-12-03T12:27:53.709Z,53.53
2022-12-03T12:30:32.348Z,55.06
2022-12-03T12:33:20.858Z,54.83
2022-12-03T12:35:48.185Z,55.40
2022-12-03T12:38:25.448Z,55.63
2022-12-03T12:41:10.085Z,57.31
2022-12-03T12:43:39.488Z,56.33
2022-12-03T12:46:46.063Z,57.10
2022-12-03T12:49:01.228Z,54.24
2022-12-03T12:51:28.704Z,54.53
2022-12-03T12:54:03.417Z,55.87
2022-12-03T12:56:36.426Z,56.77
2022-12-03T12:59:26.407Z,55.16
2022-12-03T13:01:56.439Z,55.29
2022-12-03T13:04:25.813Z,55.82
2022-12-03T13:06:54.750Z,54.56
2022-12-03T13:09:25.968Z,54.71
2022-12-03T13:12:07.383Z,56.43
2022-12-03T13:14:37.423Z,56.25
2022-12-03T13:17:25.922Z,55.33
2022-12-03T13:20:03.651Z,55.20
2022-12-03T13:22:32.758Z,55.23
2022-12-03T13:25:58.280Z,54.73
2022-12-03T13:28:21.300Z,55.04
2022-12-03T13:30:48.719Z,55.16
2022-12-03T13:33:26.595Z,55.73
2022-12-03T13:35:57.527Z,55.00
2022-12-03T13:38:25.852Z,55.18
2022-12-03T13:41:02.937Z,54.97
2022-12-03T13:43:38.708Z,55.83
2022-12-03T13:46:11.583Z,55.15
2022-12-03T13:48:40.686Z,55.92
2022-12-03T13:51:30.702Z,55.97
2022-12-03T13:54:00.182Z,57.14
2022-12-03T13:56:34.360Z,55.53
2022-12-03T13:59:06.413Z,55.83
2022-12-03T14:01:52.415Z,56.23
2022-12-03T14:04:29.888Z,55.92
2022-12-03T14:06:59.789Z,55.15
2022-12-03T14:09:27.226Z,55.87
2022-12-03T14:12:13.552Z,54.60
2022-12-03T14:14:41.095Z,55.95
2022-12-03T14:17:10.272Z,56.32
2022-12-03T14:19:43.225Z,56.47
2022-12-03T14:22:18.046Z,55.23
2022-12-03T14:24:45.346Z,55.93
2022-12-03T14:27:12.762Z,56.52
2022-12-03T14:29:40.275Z,55.85
2022-12-03T14:32:08.974Z,56.25
2022-12-03T14:34:38.576Z,57.51
2022-12-03T14:37:05.954Z,56.66
2022-12-03T14:39:33.356Z,55.78
2022-12-03T14:42:16.797Z,56.47
2022-12-03T14:44:52.238Z,58.15
2022-12-03T14:47:25.225Z,56.37
2022-12-03T14:49:53.403Z,56.57
2022-12-03T14:52:20.954Z,56.60
2022-12-03T14:54:48.236Z,56.94
2022-12-03T14:57:16.419Z,56.58
2022-12-03T14:59:48.365Z,56.74
2022-12-03T15:02:16.014Z,56.35
2022-12-03T15:04:43.435Z,55.97
2022-12-03T15:07:10.785Z,55.48
2022-12-03T15:09:38.206Z,55.99
2022-12-03T15:12:06.327Z,56.80
2022-12-03T15:14:33.750Z,56.87
2022-12-03T15:17:03.208Z,56.63
2022-12-03T15:19:33.443Z,56.52
2022-12-03T15:22:00.963Z,55.84
2022-12-03T15:24:28.760Z,56.26
2022-12-03T15:26:56.358Z,57.29
2022-12-03T15:29:23.821Z,56.06
2022-12-03T15:31:51.340Z,55.58
2022-12-03T15:34:22.428Z,56.04
2022-12-03T15:36:53.217Z,54.96
2022-12-03T15:39:20.519Z,55.68
2022-12-03T15:41:48.638Z,55.22
2022-12-03T15:44:18.568Z,56.17
2022-12-03T15:46:46.136Z,55.38
2022-12-03T15:49:13.697Z,58.78
2022-12-03T15:52:00.288Z,59.33
2022-12-03T15:54:30.403Z,58.80
2022-12-03T15:56:58.261Z,58.15
2022-12-03T15:59:25.944Z,59.17
2022-12-03T16:01:53.510Z,59.21
2022-12-03T16:04:20.858Z,58.40
2022-12-03T16:06:48.205Z,59.38
2022-12-03T16:09:15.735Z,59.53
2022-12-03T16:11:43.312Z,59.87
2022-12-03T16:14:10.517Z,59.13
2022-12-03T16:16:38.187Z,57.81
2022-12-03T16:19:05.585Z,58.21
2022-12-03T16:21:34.897Z,57.51
2022-12-03T16:24:02.860Z,56.19
2022-12-03T16:26:30.639Z,57.06
2022-12-03T16:28:58.002Z,60.17
2022-12-03T16:31:25.450Z,59.55
2022-12-03T16:34:02.484Z,58.02
2022-12-03T16:36:35.539Z,57.53
2022-12-03T16:39:03.165Z,58.78
2022-12-03T16:41:30.702Z,58.43
2022-12-03T16:44:48.469Z,58.15
2022-12-03T16:47:16.024Z,57.16
2022-12-03T16:49:43.366Z,57.99
2022-12-03T16:52:10.935Z,58.31
2022-12-03T16:54:38.579Z,59.47
2022-12-03T16:57:06.191Z,57.66
2022-12-03T16:59:33.918Z,59.06
2022-12-03T17:02:01.729Z,58.49
2022-12-03T17:04:29.298Z,59.34
2022-12-03T17:06:56.803Z,58.80
2022-12-03T17:09:25.069Z,58.21
2022-12-03T17:11:55.233Z,57.54
2022-12-03T17:14:32.819Z,57.15
2022-12-03T17:17:01.726Z,57.10
2022-12-03T17:19:34.243Z,57.44
2022-12-03T17:22:05.596Z,56.65
2022-12-03T17:24:33.953Z,56.71
2022-12-03T17:27:06.495Z,56.48
2022-12-03T17:29:34.878Z,56.22
2022-12-03T17:32:04.035Z,56.50
2022-12-03T17:34:34.503Z,57.16
2022-12-03T17:37:03.648Z,57.34
2022-12-03T17:39:34.352Z,56.96
2022-12-03T17:42:08.032Z,56.88
2022-12-03T17:44:39.169Z,56.96
2022-12-03T17:47:09.688Z,57.14
2022-12-03T17:49:39.890Z,58.07
2022-12-03T17:52:08.469Z,58.04
2022-12-03T17:55:01.973Z,56.70
2022-12-03T17:57:25.540Z,56.47
2022-12-03T17:59:53.700Z,57.50
2022-12-03T18:02:25.891Z,58.82
2022-12-03T18:04:54.082Z,58.61
2022-12-03T18:07:22.171Z,57.57
2022-12-03T18:09:55.036Z,59.10
2022-12-03T18:12:26.637Z,57.87
2022-12-03T18:15:03.025Z,59.29
2022-12-03T18:17:33.465Z,59.25
2022-12-03T18:20:05.661Z,59.46
2022-12-03T18:22:35.043Z,58.35
2022-12-03T18:25:06.312Z,58.61
2022-12-03T18:27:34.473Z,58.04
2022-12-03T18:30:06.315Z,57.90
2022-12-03T18:32:34.798Z,59.22
2022-12-03T18:35:04.087Z,59.12
2022-12-03T18:37:33.380Z,58.50
2022-12-03T18:40:12.092Z,58.34
2022-12-03T18:42:40.478Z,59.31
2022-12-03T18:45:15.891Z,58.45
2022-12-03T18:47:44.270Z,57.64
2022-12-03T18:50:13.314Z,57.80
2022-12-03T18:52:43.948Z,57.35
2022-12-03T18:55:22.067Z,57.10
2022-12-03T18:57:50.078Z,55.99
2022-12-03T19:00:18.884Z,55.54
2022-12-03T19:03:03.184Z,57.07
2022-12-03T19:05:36.475Z,57.37
2022-12-03T19:08:14.215Z,57.36
2022-12-03T19:10:43.615Z,56.79
2022-12-03T19:13:13.711Z,56.53
2022-12-03T19:15:42.005Z,57.12
2022-12-03T19:18:09.787Z,56.30
2022-12-03T19:20:42.238Z,56.63
2022-12-03T19:23:13.017Z,57.12
2022-12-03T19:25:41.203Z,56.96
2022-12-03T19:28:09.847Z,56.06
2022-12-03T19:30:37.606Z,56.27
2022-12-03T19:33:05.591Z,57.51
2022-12-03T19:35:39.906Z,56.91
2022-12-03T19:38:07.507Z,58.46
2022-12-03T19:40:35.126Z,59.12
2022-12-03T19:43:02.771Z,58.01
2022-12-03T19:45:31.680Z,56.40
2022-12-03T19:48:00.390Z,55.28
2022-12-03T19:50:28.210Z,54.96
2022-12-03T19:52:55.771Z,55.18
2022-12-03T19:55:23.355Z,56.12
2022-12-03T19:57:54.274Z,55.58
2022-12-03T20:00:22.562Z,55.77
2022-12-03T20:02:50.836Z,57.50
2022-12-03T20:05:18.860Z,56.77
2022-12-03T20:07:46.941Z,55.99
2022-12-03T20:10:14.414Z,55.97
2022-12-03T20:12:42.207Z,55.96
2022-12-03T20:15:11.109Z,57.45
2022-12-03T20:17:38.887Z,57.42
2022-12-03T20:20:08.259Z,56.93
2022-12-03T20:22:36.090Z,57.43
2022-12-03T20:25:04.354Z,58.40
2022-12-03T20:28:04.927Z,58.05
2022-12-03T20:30:32.907Z,56.70
2022-12-03T20:33:00.827Z,57.21
2022-12-03T20:35:30.883Z,56.36
2022-12-03T20:37:58.740Z,56.34
2022-12-03T20:40:26.421Z,55.91
2022-12-03T20:42:54.096Z,55.13
2022-12-03T20:45:21.758Z,55.59
2022-12-03T20:47:51.499Z,57.04
2022-12-03T20:50:19.335Z,57.17
2022-12-03T20:53:03.634Z,56.01
2022-12-03T20:55:34.589Z,55.55
2022-12-03T20:58:03.015Z,56.64
2022-12-03T21:00:31.857Z,56.03
2022-12-03T21:02:59.697Z,57.12
2022-12-03T21:05:27.589Z,56.00
2022-12-03T21:08:01.407Z,57.06
2022-12-03T21:10:44.811Z,56.28
2022-12-03T21:13:18.538Z,55.97
2022-12-03T21:15:47.385Z,55.71
2022-12-03T21:18:17.829Z,55.87
2022-12-03T21:20:48.241Z,57.41
2022-12-03T21:23:15.911Z,56.75
2022-12-03T21:25:43.806Z,56.10
2022-12-03T21:28:11.776Z,56.66
2022-12-03T21:30:40.475Z,55.53
2022-12-03T21:33:08.132Z,55.29
2022-12-03T21:35:39.773Z,55.20
2022-12-03T21:38:08.590Z,54.99
2022-12-03T21:40:36.113Z,57.16
2022-12-03T21:43:03.510Z,57.03
2022-12-03T21:45:31.054Z,55.89
2022-12-03T21:47:58.711Z,55.54
2022-12-03T21:50:28.686Z,56.14
2022-12-03T21:52:56.521Z,56.77
2022-12-03T21:55:24.732Z,56.98
2022-12-03T21:57:52.667Z,58.96
2022-12-03T22:00:21.780Z,59.26
2022-12-03T22:02:49.541Z,58.84
2022-12-03T22:05:17.404Z,56.67
2022-12-03T22:07:44.897Z,56.13
2022-12-03T22:10:13.399Z,56.60
2022-12-03T22:12:43.267Z,57.70
2022-12-03T22:15:18.185Z,57.68
2022-12-03T22:17:46.411Z,56.82
2022-12-03T22:20:14.396Z,57.15
2022-12-03T22:22:41.976Z,55.89
2022-12-03T22:25:10.130Z,56.45
2022-12-03T22:27:37.775Z,55.94
2022-12-03T22:30:07.149Z,56.46
2022-12-03T22:32:39.800Z,58.15
2022-12-03T22:35:08.359Z,57.06
2022-12-03T22:37:42.349Z,57.34
2022-12-03T22:40:10.513Z,57.15
2022-12-03T22:42:37.721Z,57.42
2022-12-03T22:45:06.453Z,57.38
2022-12-03T22:47:34.098Z,57.26
2022-12-03T22:50:01.581Z,57.38
2022-12-03T22:52:30.406Z,56.51
2022-12-03T22:54:58.027Z,57.05
2022-12-03T22:57:25.729Z,58.86
2022-12-03T22:59:55.118Z,58.51
2022-12-03T23:02:23.486Z,58.42
2022-12-03T23:04:59.006Z,58.86
2022-12-03T23:07:29.136Z,58.46
2022-12-03T23:09:59.977Z,59.03
2022-12-03T23:12:40.716Z,59.48
2022-12-03T23:15:09.997Z,57.28
2022-12-03T23:17:37.677Z,57.56
2022-12-03T23:20:06.730Z,55.99
2022-12-03T23:22:34.627Z,55.76
2022-12-03T23:25:10.156Z,54.78
2022-12-03T23:27:37.964Z,57.38
2022-12-03T23:30:07.955Z,56.90
2022-12-03T23:32:36.549Z,56.54
2022-12-03T23:35:05.379Z,57.23
2022-12-03T23:37:33.252Z,58.51
2022-12-03T23:40:02.536Z,58.09
2022-12-03T23:42:43.493Z,57.62
2022-12-03T23:45:11.602Z,57.80
2022-12-03T23:47:47.032Z,57.73
2022-12-03T23:50:14.980Z,57.70
2022-12-03T23:52:46.836Z,56.06
2022-12-03T23:55:30.023Z,56.84
2022-12-03T23:57:57.637Z,57.08
